createdAt,value
2022-09-25T00:04:41.694Z,12.1
2022-09-25T00:09:49.625Z,12.0
2022-09-25T00:14:56.054Z,12.0
2022-09-25T00:20:16.501Z,12.0
2022-09-25T00:25:08.827Z,12.0
2022-09-25T00:30:15.208Z,11.9
2022-09-25T00:35:21.616Z,11.9
2022-09-25T00:40:28.054Z,11.9
2022-09-25T00:45:34.474Z,11.8
2022-09-25T00:50:40.977Z,11.8
2022-09-25T00:55:37.326Z,11.8
2022-09-25T01:00:43.708Z,11.8
2022-09-25T01:07:12.239Z,11.7
2022-09-25T01:10:56.466Z,11.7
2022-09-25T01:16:02.960Z,11.7
2022-09-25T01:21:19.486Z,11.6
2022-09-25T01:26:25.902Z,11.6
2022-09-25T01:31:52.297Z,11.5
2022-09-25T01:36:28.612Z,11.4
2022-09-25T01:41:45.039Z,11.4
2022-09-25T01:46:51.387Z,11.3
2022-09-25T01:52:11.909Z,11.2
2022-09-25T01:57:04.289Z,11.2
2022-09-25T02:02:30.806Z,11.1
2022-09-25T02:07:17.067Z,11.0
2022-09-25T02:12:47.523Z,11.0
2022-09-25T02:17:53.870Z,10.9
2022-09-25T02:22:26.215Z,10.8
2022-09-25T02:27:42.686Z,10.8
2022-09-25T02:33:03.233Z,10.7
2022-09-25T02:37:55.569Z,10.7
2022-09-25T02:43:21.984Z,10.6
2022-09-25T02:47:58.315Z,10.6
2022-09-25T02:53:04.737Z,10.5
2022-09-25T02:58:11.188Z,10.5
2022-09-25T03:03:27.693Z,10.4
2022-09-25T03:09:34.200Z,10.4
2022-09-25T03:13:40.461Z,10.4
2022-09-25T03:19:48.954Z,10.3
2022-09-25T03:23:43.202Z,10.3
2022-09-25T03:29:23.673Z,10.2
2022-09-25T03:40:12.661Z,10.2
2022-09-25T03:44:18.973Z,10.1
2022-09-25T03:49:25.481Z,10.1
2022-09-25T03:54:51.777Z,10.1
2022-09-25T04:00:22.222Z,10.0
2022-09-25T04:04:44.545Z,10.0
2022-09-25T04:09:51.009Z,9.9
2022-09-25T04:16:21.792Z,9.9
2022-09-25T04:20:03.927Z,9.8
2022-09-25T04:25:34.331Z,9.7
2022-09-25T04:30:06.648Z,9.7
2022-09-25T04:35:43.114Z,9.6
2022-09-25T04:40:29.513Z,9.6
2022-09-25T04:45:56.018Z,9.5
2022-09-25T04:51:06.349Z,9.4
2022-09-25T04:56:02.685Z,9.4
2022-09-25T05:05:51.401Z,9.2
2022-09-25T05:11:51.929Z,9.2
2022-09-25T05:16:14.357Z,9.1
2022-09-25T05:26:27.089Z,9.0
2022-09-25T05:31:33.595Z,9.0
2022-09-25T05:37:03.930Z,8.9
2022-09-25T05:41:46.274Z,8.8
2022-09-25T05:46:52.617Z,8.8
2022-09-25T05:51:58.971Z,8.7
2022-09-25T05:57:05.397Z,8.7
2022-09-25T06:02:11.956Z,8.6
2022-09-25T06:07:18.301Z,8.6
2022-09-25T06:12:24.689Z,8.6
2022-09-25T06:17:31.170Z,8.6
2022-09-25T06:22:37.437Z,8.5
2022-09-25T06:27:43.815Z,8.5
2022-09-25T06:32:50.223Z,8.5
2022-09-25T06:37:56.577Z,8.5
2022-09-25T06:43:02.986Z,8.6
2022-09-25T06:48:33.530Z,8.6
2022-09-25T06:53:15.947Z,8.6
2022-09-25T06:59:24.459Z,8.6
2022-09-25T07:03:28.717Z,8.7
2022-09-25T07:08:59.163Z,8.8
2022-09-25T07:13:41.474Z,8.8
2022-09-25T07:24:14.857Z,9.0
2022-09-25T07:29:21.315Z,9.1
2022-09-25T07:34:07.707Z,9.5
2022-09-25T07:39:04.015Z,10.3
2022-09-25T07:44:48.109Z,11.3
2022-09-25T07:49:26.828Z,12.5
2022-09-25T07:54:33.219Z,13.6
2022-09-25T07:59:39.719Z,14.7
2022-09-25T08:04:36.384Z,15.8
2022-09-25T08:10:16.824Z,16.8
2022-09-25T08:14:59.158Z,17.8
2022-09-25T08:20:05.555Z,18.7
2022-09-25T08:25:11.926Z,19.6
2022-09-25T08:30:18.399Z,20.4
2022-09-25T08:35:24.803Z,21.2
2022-09-25T08:40:31.350Z,22.0
2022-09-25T08:45:37.563Z,22.6
2022-09-25T08:50:34.076Z,23.4
2022-09-25T08:55:40.502Z,24.0
2022-09-25T09:00:56.907Z,24.6
2022-09-25T09:05:53.293Z,25.1
2022-09-25T09:11:13.391Z,25.6
2022-09-25T09:16:06.068Z,26.1
2022-09-25T09:21:12.539Z,26.6
2022-09-25T09:26:28.835Z,26.9
2022-09-25T09:31:35.213Z,27.2
2022-09-25T09:37:01.663Z,27.4
2022-09-25T09:41:47.964Z,27.6
2022-09-25T09:46:44.320Z,28.0
2022-09-25T09:53:49.082Z,28.0
2022-09-25T09:57:44.322Z,27.9
2022-09-25T10:03:04.958Z,27.5
2022-09-25T10:08:17.141Z,26.9
2022-09-25T10:13:27.568Z,26.4
2022-09-25T10:18:09.877Z,26.1
2022-09-25T10:26:07.248Z,26.0
2022-09-25T10:28:22.662Z,26.2
2022-09-25T10:33:29.115Z,26.5
2022-09-25T10:38:39.034Z,26.6
2022-09-25T10:50:08.040Z,26.8
2022-09-25T10:53:57.245Z,27.3
2022-09-25T10:59:48.701Z,27.8
2022-09-25T11:04:45.124Z,29.0
2022-09-25T11:11:01.769Z,29.3
2022-09-25T11:19:04.837Z,29.3
2022-09-25T11:21:18.033Z,29.2
2022-09-25T11:26:24.602Z,28.8
2022-09-25T11:31:20.867Z,28.3
2022-09-25T11:36:36.248Z,28.0
2022-09-25T11:51:56.374Z,28.6
2022-09-25T11:56:52.809Z,29.0
2022-09-25T12:02:29.335Z,29.4
2022-09-25T12:07:15.613Z,29.5
2022-09-25T12:13:34.157Z,29.3
2022-09-25T12:17:42.395Z,29.1
2022-09-25T12:23:43.925Z,28.2
2022-09-25T12:29:05.341Z,28.2
2022-09-25T12:34:20.790Z,27.7
2022-09-25T12:39:19.173Z,27.1
2022-09-25T12:44:01.503Z,26.6
2022-09-25T12:49:37.962Z,26.1
2022-09-25T12:54:24.285Z,25.5
2022-09-25T12:59:30.656Z,25.1
2022-09-25T13:04:27.038Z,24.6
2022-09-25T13:09:43.653Z,24.2
2022-09-25T13:14:49.923Z,23.9
2022-09-25T13:19:56.343Z,23.7
2022-09-25T13:25:02.747Z,23.5
2022-09-25T13:30:09.110Z,23.3
2022-09-25T13:35:05.539Z,23.1
2022-09-25T13:40:22.101Z,22.9
2022-09-25T13:45:28.426Z,22.8
2022-09-25T13:50:34.804Z,22.7
2022-09-25T13:55:41.298Z,22.7
2022-09-25T14:00:51.630Z,22.6
2022-09-25T14:05:54.062Z,22.4
2022-09-25T14:11:00.757Z,22.3
2022-09-25T14:16:21.100Z,22.1
2022-09-25T14:21:33.444Z,22.0
2022-09-25T14:26:19.801Z,21.7
2022-09-25T14:31:26.243Z,21.3
2022-09-25T14:36:32.573Z,21.1
2022-09-25T14:41:38.969Z,21.0
2022-09-25T14:46:45.337Z,20.8
2022-09-25T14:51:51.713Z,20.7
2022-09-25T14:56:58.118Z,20.6
2022-09-25T15:07:01.039Z,20.3
2022-09-25T15:12:17.538Z,20.1
2022-09-25T15:17:23.942Z,20.1
2022-09-25T15:22:30.425Z,20.0
2022-09-25T15:27:41.022Z,19.8
2022-09-25T15:32:43.285Z,19.8
2022-09-25T15:37:49.667Z,19.7
2022-09-25T15:42:56.181Z,19.6
2022-09-25T15:48:02.658Z,19.5
2022-09-25T15:53:09.047Z,19.4
2022-09-25T15:58:15.468Z,19.3
2022-09-25T16:03:21.849Z,19.2
2022-09-25T16:08:28.268Z,19.1
2022-09-25T16:13:36.676Z,19.0
2022-09-25T16:18:41.096Z,18.9
2022-09-25T16:23:50.863Z,18.7
2022-09-25T16:29:15.051Z,18.6
2022-09-25T16:34:21.342Z,18.5
2022-09-25T16:39:28.042Z,18.4
2022-09-25T16:44:14.278Z,18.3
2022-09-25T16:49:20.687Z,18.1
2022-09-25T16:54:27.046Z,17.9
2022-09-25T16:59:33.420Z,17.7
2022-09-25T17:04:39.822Z,17.6
2022-09-25T17:14:52.601Z,17.3
2022-09-25T17:20:23.185Z,17.2
2022-09-25T17:25:05.481Z,17.0
2022-09-25T17:30:35.898Z,16.8
2022-09-25T17:35:18.231Z,16.7
2022-09-25T17:40:24.719Z,16.5
2022-09-25T17:45:31.016Z,16.4
2022-09-25T17:50:37.609Z,16.2
2022-09-25T17:55:44.034Z,16.1
2022-09-25T18:01:10.440Z,15.9
2022-09-25T18:05:56.776Z,15.8
2022-09-25T18:11:03.202Z,15.6
2022-09-25T18:16:29.735Z,15.5
2022-09-25T18:21:16.106Z,15.3
2022-09-25T18:26:12.495Z,15.2
2022-09-25T18:31:29.055Z,15.1
2022-09-25T18:36:35.320Z,15.0
2022-09-25T18:52:54.829Z,14.7
2022-09-25T18:57:01.151Z,14.5
2022-09-25T19:02:07.647Z,14.4
2022-09-25T19:08:14.045Z,14.3
2022-09-25T19:17:26.741Z,14.0
2022-09-25T19:22:33.119Z,13.9
2022-09-25T19:28:03.565Z,13.8
2022-09-25T19:32:45.868Z,13.8
2022-09-25T19:37:52.246Z,13.7
2022-09-25T19:42:58.744Z,13.6
2022-09-25T19:49:06.469Z,13.5
2022-09-25T19:53:49.936Z,13.5
2022-09-25T19:59:19.873Z,13.4
2022-09-25T20:04:07.958Z,13.3
2022-09-25T20:09:37.603Z,13.2
2022-09-25T20:14:36.039Z,13.1
2022-09-25T20:20:22.482Z,13.0
2022-09-25T20:24:28.884Z,12.9
2022-09-25T20:29:35.291Z,12.8
2022-09-25T20:35:33.478Z,12.7
2022-09-25T20:40:15.906Z,12.6
2022-09-25T20:44:58.176Z,12.5
2022-09-25T20:50:04.631Z,12.5
2022-09-25T21:00:19.472Z,12.4
2022-09-25T21:05:23.909Z,12.3
2022-09-25T21:10:30.285Z,12.2
2022-09-25T21:16:00.729Z,12.1
2022-09-25T21:20:43.176Z,12.1
2022-09-25T21:25:49.655Z,12.1
2022-09-25T21:31:00.090Z,12.0
2022-09-25T21:36:02.446Z,12.0
2022-09-25T21:41:08.805Z,11.9
2022-09-25T21:46:35.276Z,11.9
2022-09-25T21:51:21.575Z,11.9
2022-09-25T21:56:27.949Z,11.8
2022-09-25T22:01:58.483Z,11.7
2022-09-25T22:06:40.903Z,11.7
2022-09-25T22:11:47.440Z,11.6
2022-09-25T22:18:05.914Z,11.5
2022-09-25T22:22:00.214Z,11.4
2022-09-25T22:27:06.658Z,11.4
2022-09-25T22:32:13.151Z,11.3
2022-09-25T22:37:39.689Z,11.3
2022-09-25T22:42:26.017Z,11.2
2022-09-25T22:47:32.389Z,11.1
2022-09-25T22:52:58.825Z,11.1
2022-09-25T22:57:49.194Z,11.1
2022-09-25T23:02:51.725Z,11.0
2022-09-25T23:08:22.307Z,11.0
2022-09-25T23:14:04.768Z,11.0
2022-09-25T23:23:45.505Z,11.0
2022-09-25T23:28:23.794Z,11.0
2022-09-25T23:33:30.189Z,10.9
2022-09-25T23:38:36.557Z,10.9
2022-09-25T23:43:43.169Z,10.9
2022-09-25T23:48:49.549Z,10.9
2022-09-25T23:54:19.981Z,10.9
2022-09-25T23:59:02.359Z,10.9
